Time;durP1;ratioP1;P1;durP2;ratioP2;P2;SDS_P1;SDS_P2;PMS_P1;PMS_P2;Temp;Humidity;BMP_temperature;BMP_pressure;BME280_temperature;BME280_humidity;BME280_pressure;Samples;Min_cycle;Max_cycle;Signal;HPM_P1;HPM_P2
2023/10/18 00:04:42;;;;;;;195.60;102.40;;;;;;;3.83;78.66;98869.64;435519;1251;99317;-43
2023/10/18 00:14:50;;;;;;;173.80;89.40;;;;;;;3.68;79.14;98872.15;435341;1253;111978;-42
2023/10/18 00:24:55;;;;;;;163.50;85.20;;;;;;;3.67;79.18;98876.22;435488;1250;107559;-42
2023/10/18 00:34:59;;;;;;;168.00;93.30;;;;;;;3.54;79.18;98876.86;435405;1251;99258;-41
2023/10/18 00:55:10;;;;;;;181.60;96.00;;;;;;;3.00;79.16;98871.92;435514;1250;99224;-42
2023/10/18 01:05:16;;;;;;;152.50;81.20;;;;;;;2.83;79.21;98871.42;435495;1253;113690;-42
2023/10/18 01:15:21;;;;;;;130.80;70.70;;;;;;;2.94;79.73;98864.33;436099;1249;107739;-42
2023/10/18 01:25:25;;;;;;;143.40;79.20;;;;;;;3.21;79.97;98851.80;435450;1262;98013;-41
2023/10/18 01:35:29;;;;;;;127.50;75.40;;;;;;;3.14;79.87;98844.50;435358;1255;109227;-40
2023/10/18 01:55:36;;;;;;;85.10;50.60;;;;;;;3.00;80.15;98824.17;435426;1255;111246;-42
2023/10/18 02:05:47;;;;;;;80.80;46.30;;;;;;;2.97;80.10;98829.83;435190;1252;107928;-42
2023/10/18 02:15:50;;;;;;;90.00;55.50;;;;;;;2.90;80.13;98840.33;435225;1255;99058;-41
2023/10/18 02:25:54;;;;;;;110.90;60.80;;;;;;;2.62;80.07;98832.24;435291;1256;108547;-42
2023/10/18 02:35:58;;;;;;;127.50;72.80;;;;;;;2.39;80.43;98828.77;435212;1252;99349;-42
2023/10/18 02:56:10;;;;;;;95.00;59.20;;;;;;;2.17;80.29;98819.02;435338;1255;107874;-42
2023/10/18 03:06:14;;;;;;;87.10;52.20;;;;;;;2.10;80.42;98815.63;435299;1255;99256;-42
2023/10/18 03:36:26;;;;;;;118.40;69.10;;;;;;;1.72;80.66;98803.52;435519;1255;111603;-41
2023/10/18 03:46:29;;;;;;;116.00;65.30;;;;;;;1.61;80.82;98804.12;435273;1257;109407;-42
2023/10/18 03:56:36;;;;;;;120.90;68.20;;;;;;;1.63;80.84;98808.05;435342;1254;99256;-41
2023/10/18 04:06:42;;;;;;;119.50;68.20;;;;;;;1.58;80.89;98802.05;435324;1255;107510;-42
2023/10/18 04:26:56;;;;;;;182.10;90.40;;;;;;;1.29;81.03;98792.30;435436;1255;111323;-42
2023/10/18 04:47:04;;;;;;;129.40;73.80;;;;;;;1.04;81.28;98766.72;435509;1251;99237;-41
2023/10/18 05:47:36;;;;;;;146.50;83.50;;;;;;;0.91;81.94;98767.57;435563;1253;111094;-42
2023/10/18 06:07:45;;;;;;;117.70;72.30;;;;;;;1.28;82.31;98766.19;435261;1255;99275;-43
2023/10/18 06:17:56;;;;;;;114.00;64.30;;;;;;;1.98;82.71;98766.70;435284;1252;111022;-42
2023/10/18 06:38:09;;;;;;;137.60;76.50;;;;;;;2.74;82.41;98778.10;435338;1253;99701;-42
2023/10/18 07:18:28;;;;;;;90.50;51.50;;;;;;;5.12;83.42;98761.13;435219;1251;108527;-43
2023/10/18 07:28:35;;;;;;;97.60;54.70;;;;;;;6.53;83.65;98744.88;435128;1253;99528;-42
2023/10/18 08:08:58;;;;;;;63.10;35.70;;;;;;;10.15;79.46;98727.23;435400;1264;107667;-43
2023/10/18 08:19:07;;;;;;;58.20;29.40;;;;;;;10.15;78.13;98724.80;435368;1251;98014;-43
2023/10/18 08:29:14;;;;;;;35.40;20.50;;;;;;;10.38;77.49;98724.84;435352;1249;110078;-42
2023/10/18 08:59:27;;;;;;;15.80;10.70;;;;;;;11.18;74.65;98713.82;435381;1254;107959;-41
2023/10/18 09:29:46;;;;;;;16.90;9.00;;;;;;;11.99;71.46;98699.67;435218;1255;107296;-41
2023/10/18 09:39:56;;;;;;;12.40;8.40;;;;;;;12.10;70.55;98696.36;435028;1251;98325;-42
2023/10/18 10:10:24;;;;;;;11.20;6.90;;;;;;;12.38;68.34;98687.64;435425;1251;109683;-41
2023/10/18 10:20:32;;;;;;;8.40;5.50;;;;;;;12.41;68.03;98683.23;435399;1254;109131;-43
2023/10/18 10:50:50;;;;;;;16.20;8.10;;;;;;;12.77;66.39;98645.33;435419;1251;99231;-42
2023/10/18 11:01:04;;;;;;;10.90;7.00;;;;;;;12.68;65.11;98632.77;435286;1254;112153;-42
2023/10/18 11:11:08;;;;;;;10.20;6.50;;;;;;;12.67;64.38;98618.23;435369;1254;107452;-42
2023/10/18 11:31:26;;;;;;;14.60;7.80;;;;;;;12.48;63.46;98606.80;435175;1252;108236;-42
2023/10/18 11:41:34;;;;;;;10.20;6.70;;;;;;;12.37;62.75;98592.60;435473;1251;98365;-42
2023/10/18 12:01:53;;;;;;;10.40;7.80;;;;;;;12.28;62.26;98552.25;435253;1254;108780;-43
2023/10/18 12:11:58;;;;;;;16.20;6.70;;;;;;;12.18;62.04;98543.83;435321;1251;99224;-42
2023/10/18 12:22:05;;;;;;;11.70;6.50;;;;;;;12.14;62.26;98527.71;435237;1254;109642;-42
2023/10/18 12:42:33;;;;;;;10.10;6.10;;;;;;;11.98;61.27;98503.44;434974;1251;374041;-42
2023/10/18 13:12:55;;;;;;;27.70;12.50;;;;;;;11.77;61.31;98473.21;435313;1255;108233;-43
2023/10/18 13:33:11;;;;;;;11.20;5.50;;;;;;;11.63;61.24;98455.23;435348;1253;110977;-41
2023/10/18 13:43:17;;;;;;;10.60;6.30;;;;;;;11.53;61.16;98451.94;435162;1254;110539;-42
2023/10/18 13:53:23;;;;;;;10.50;5.70;;;;;;;11.51;61.16;98447.30;435213;1251;99256;-41
2023/10/18 14:03:28;;;;;;;9.70;5.00;;;;;;;11.41;61.18;98438.41;435273;1254;107356;-42
2023/10/18 14:13:34;;;;;;;13.50;6.30;;;;;;;11.32;61.10;98430.18;435209;1263;99243;-42
2023/10/18 14:23:37;;;;;;;14.70;6.30;;;;;;;11.14;61.15;98423.39;435232;1251;113001;-42
2023/10/18 14:33:41;;;;;;;15.40;9.50;;;;;;;10.88;61.24;98422.33;435127;1254;110181;-42
2023/10/18 14:44:01;;;;;;;12.30;7.10;;;;;;;10.67;61.33;98420.44;435281;1254;99246;-42
2023/10/18 14:54:04;;;;;;;17.40;7.30;;;;;;;10.39;61.56;98405.77;435424;1252;108090;-42
2023/10/18 15:04:11;;;;;;;19.00;6.60;;;;;;;10.09;61.79;98397.21;435243;1250;99335;-42
2023/10/18 15:14:15;;;;;;;15.70;6.70;;;;;;;9.74;62.43;98386.27;435294;1251;110548;-42
2023/10/18 15:24:19;;;;;;;12.40;7.40;;;;;;;9.31;63.03;98382.54;435234;1254;109806;-41
2023/10/18 15:34:29;;;;;;;19.80;8.60;;;;;;;8.83;63.53;98378.64;435240;1254;97984;-42
2023/10/18 15:44:33;;;;;;;25.10;10.50;;;;;;;8.39;63.93;98371.55;435366;1255;111133;-42
2023/10/18 15:54:37;;;;;;;19.40;11.20;;;;;;;7.97;64.68;98365.48;435128;1254;108147;-41
2023/10/18 16:04:41;;;;;;;43.90;22.20;;;;;;;7.61;65.37;98366.89;435373;1251;98026;-41
2023/10/18 16:15:10;;;;;;;66.40;30.90;;;;;;;7.13;65.78;98366.86;435348;1253;108115;-42
2023/10/18 16:25:15;;;;;;;74.10;34.80;;;;;;;6.65;66.36;98366.20;435225;1250;99532;-42
2023/10/18 16:35:22;;;;;;;89.60;42.60;;;;;;;6.24;66.80;98371.08;435281;1252;112515;-41
2023/10/18 16:45:26;;;;;;;78.00;34.90;;;;;;;5.88;67.21;98362.45;435188;1254;108157;-42
2023/10/18 16:55:30;;;;;;;72.10;34.40;;;;;;;5.64;67.67;98357.15;435259;1254;99244;-41
2023/10/18 17:05:36;;;;;;;87.50;44.20;;;;;;;5.52;68.45;98350.79;435152;1253;109973;-43
2023/10/18 17:15:41;;;;;;;99.00;50.90;;;;;;;5.22;68.63;98345.70;435239;1254;98810;-42
2023/10/18 17:25:44;;;;;;;108.90;55.40;;;;;;;4.99;69.00;98336.86;435367;1251;111152;-43
2023/10/18 17:35:48;;;;;;;119.90;53.60;;;;;;;4.86;69.43;98329.47;435253;1254;108405;-42
2023/10/18 17:45:51;;;;;;;105.50;56.20;;;;;;;4.72;69.71;98317.41;435426;1254;99154;-45
2023/10/18 17:55:58;;;;;;;128.40;62.30;;;;;;;4.82;70.39;98309.85;435306;1254;109227;-42
2023/10/18 18:16:09;;;;;;;115.60;60.10;;;;;;;4.58;70.90;98300.02;435314;1251;111311;-42
2023/10/18 18:26:14;;;;;;;92.80;42.80;;;;;;;4.51;71.46;98300.90;435172;1255;107879;-42
2023/10/18 18:36:18;;;;;;;72.20;39.20;;;;;;;4.55;71.51;98292.85;435210;1254;99263;-42
2023/10/18 18:46:25;;;;;;;91.10;47.40;;;;;;;4.46;71.77;98290.77;435338;1255;109041;-42
2023/10/18 18:56:41;;;;;;;91.00;51.30;;;;;;;4.26;72.10;98290.36;435183;1255;98825;-42
2023/10/18 19:06:45;;;;;;;111.50;59.90;;;;;;;4.01;72.17;98283.27;435334;1251;112243;-42
2023/10/18 19:16:49;;;;;;;104.00;53.60;;;;;;;3.94;72.60;98275.45;435066;1250;108804;-41
2023/10/18 19:37:24;;;;;;;120.90;68.30;;;;;;;3.79;73.08;98265.98;435083;1252;108466;-42
2023/10/18 19:47:28;;;;;;;173.30;81.90;;;;;;;3.73;73.51;98262.69;435307;1255;99211;-43
2023/10/18 20:17:38;;;;;;;216.50;109.70;;;;;;;3.57;74.03;98244.96;435216;1255;99296;-42
2023/10/18 20:27:42;;;;;;;245.80;126.80;;;;;;;3.49;74.19;98229.83;435274;1252;111326;-43
2023/10/18 20:37:46;;;;;;;257.80;135.30;;;;;;;3.32;74.35;98218.58;435355;1255;108895;-42
2023/10/18 20:47:50;;;;;;;241.30;128.70;;;;;;;3.07;74.53;98219.52;435300;1255;99552;-42
2023/10/18 20:57:57;;;;;;;198.00;106.60;;;;;;;2.94;74.70;98214.94;435345;1253;99219;-42
2023/10/18 21:18:08;;;;;;;226.20;116.20;;;;;;;2.95;75.10;98195.66;435311;1253;99262;-42
2023/10/18 21:28:13;;;;;;;194.50;104.40;;;;;;;2.87;75.26;98195.89;435192;1254;109393;-43
2023/10/18 21:38:17;;;;;;;197.10;99.40;;;;;;;2.73;75.35;98187.27;435284;1253;98019;-42
2023/10/18 21:48:21;;;;;;;292.10;124.10;;;;;;;2.76;75.66;98170.91;435260;1254;111153;-42
2023/10/18 21:58:24;;;;;;;215.30;104.80;;;;;;;2.86;75.43;98159.98;435144;1251;107388;-40
2023/10/18 22:28:43;;;;;;;217.20;112.50;;;;;;;2.64;76.10;98121.23;435186;1255;99237;-40
2023/10/18 22:38:50;;;;;;;213.90;108.90;;;;;;;2.48;76.15;98106.95;435292;1255;113048;-42
2023/10/18 22:48:54;;;;;;;186.60;101.80;;;;;;;2.51;76.26;98090.30;435308;1251;108605;-41
2023/10/18 22:59:02;;;;;;;173.70;92.20;;;;;;;2.46;76.22;98073.61;435218;1254;99384;-42
2023/10/18 23:19:31;;;;;;;176.70;94.70;;;;;;;2.43;76.62;98048.42;435152;1255;99031;-42
2023/10/18 23:49:45;;;;;;;141.20;73.70;;;;;;;2.34;77.13;98030.63;435365;1253;99266;-42
2023/10/18 23:59:53;;;;;;;151.40;82.80;;;;;;;2.37;77.18;98020.25;435321;1255;111255;-42
